sensor_id;sensor_type;location;lat;lon;timestamp;temperature;humidity
67093;SHT31;54011;50.772;7.730;2022-11-04T00:01:42;10.37;91.27
67093;SHT31;54011;50.772;7.730;2022-11-04T00:04:09;10.29;91.03
67093;SHT31;54011;50.772;7.730;2022-11-04T00:06:35;10.25;91.21
67093;SHT31;54011;50.772;7.730;2022-11-04T00:09:01;10.18;91.48
67093;SHT31;54011;50.772;7.730;2022-11-04T00:11:27;10.18;90.68
67093;SHT31;54011;50.772;7.730;2022-11-04T00:14:12;10.22;91.84
67093;SHT31;54011;50.772;7.730;2022-11-04T00:16:38;10.13;90.95
67093;SHT31;54011;50.772;7.730;2022-11-04T00:19:23;10.10;91.06
67093;SHT31;54011;50.772;7.730;2022-11-04T00:21:49;10.19;91.13
67093;SHT31;54011;50.772;7.730;2022-11-04T00:24:35;10.15;90.83
67093;SHT31;54011;50.772;7.730;2022-11-04T00:27:11;10.18;90.22
67093;SHT31;54011;50.772;7.730;2022-11-04T00:29:55;10.16;90.73
67093;SHT31;54011;50.772;7.730;2022-11-04T00:32:22;10.18;90.71
67093;SHT31;54011;50.772;7.730;2022-11-04T00:35:06;10.13;90.99
67093;SHT31;54011;50.772;7.730;2022-11-04T00:37:42;10.19;91.27
67093;SHT31;54011;50.772;7.730;2022-11-04T00:40:11;10.15;91.13
67093;SHT31;54011;50.772;7.730;2022-11-04T00:42:38;10.15;91.18
67093;SHT31;54011;50.772;7.730;2022-11-04T00:45:05;10.10;89.85
67093;SHT31;54011;50.772;7.730;2022-11-04T00:47:30;10.22;89.89
67093;SHT31;54011;50.772;7.730;2022-11-04T00:49:56;10.18;90.47
67093;SHT31;54011;50.772;7.730;2022-11-04T00:52:21;10.10;89.90
67093;SHT31;54011;50.772;7.730;2022-11-04T00:54:47;10.19;90.21
67093;SHT31;54011;50.772;7.730;2022-11-04T00:57:13;10.16;90.41
67093;SHT31;54011;50.772;7.730;2022-11-04T00:59:40;10.18;90.07
67093;SHT31;54011;50.772;7.730;2022-11-04T01:02:06;10.20;89.17
67093;SHT31;54011;50.772;7.730;2022-11-04T01:04:32;10.10;89.23
67093;SHT31;54011;50.772;7.730;2022-11-04T01:06:58;10.13;89.39
67093;SHT31;54011;50.772;7.730;2022-11-04T01:09:23;10.05;88.82
67093;SHT31;54011;50.772;7.730;2022-11-04T01:11:49;10.05;89.37
67093;SHT31;54011;50.772;7.730;2022-11-04T01:14:14;10.08;89.30
67093;SHT31;54011;50.772;7.730;2022-11-04T01:16:40;10.01;89.75
67093;SHT31;54011;50.772;7.730;2022-11-04T01:19:06;10.02;89.90
67093;SHT31;54011;50.772;7.730;2022-11-04T01:21:32;9.96;89.90
67093;SHT31;54011;50.772;7.730;2022-11-04T01:23:59;9.98;90.01
67093;SHT31;54011;50.772;7.730;2022-11-04T01:26:26;9.91;90.57
67093;SHT31;54011;50.772;7.730;2022-11-04T01:28:53;9.84;90.77
67093;SHT31;54011;50.772;7.730;2022-11-04T01:31:24;9.77;90.76
67093;SHT31;54011;50.772;7.730;2022-11-04T01:33:52;9.73;90.70
67093;SHT31;54011;50.772;7.730;2022-11-04T01:36:18;9.68;90.41
67093;SHT31;54011;50.772;7.730;2022-11-04T01:38:44;9.70;90.09
67093;SHT31;54011;50.772;7.730;2022-11-04T01:41:24;9.68;89.89
67093;SHT31;54011;50.772;7.730;2022-11-04T01:43:53;9.61;90.19
67093;SHT31;54011;50.772;7.730;2022-11-04T01:49:25;9.59;90.11
67093;SHT31;54011;50.772;7.730;2022-11-04T01:51:54;9.48;90.28
67093;SHT31;54011;50.772;7.730;2022-11-04T01:54:21;9.47;90.15
67093;SHT31;54011;50.772;7.730;2022-11-04T01:56:47;9.48;90.11
67093;SHT31;54011;50.772;7.730;2022-11-04T01:59:22;9.46;90.28
67093;SHT31;54011;50.772;7.730;2022-11-04T02:01:49;9.34;90.27
67093;SHT31;54011;50.772;7.730;2022-11-04T02:04:15;9.27;90.53
67093;SHT31;54011;50.772;7.730;2022-11-04T02:07:13;9.27;90.87
67093;SHT31;54011;50.772;7.730;2022-11-04T02:09:39;9.27;90.73
67093;SHT31;54011;50.772;7.730;2022-11-04T02:12:05;9.22;90.86
67093;SHT31;54011;50.772;7.730;2022-11-04T02:14:50;9.19;91.13
67093;SHT31;54011;50.772;7.730;2022-11-04T02:22:30;9.13;91.11
67093;SHT31;54011;50.772;7.730;2022-11-04T02:25:02;9.19;90.52
67093;SHT31;54011;50.772;7.730;2022-11-04T02:27:37;9.23;90.29
67093;SHT31;54011;50.772;7.730;2022-11-04T02:30:09;9.12;90.41
67093;SHT31;54011;50.772;7.730;2022-11-04T02:35:24;9.17;90.25
67093;SHT31;54011;50.772;7.730;2022-11-04T02:37:55;9.15;90.22
67093;SHT31;54011;50.772;7.730;2022-11-04T02:40:31;9.13;90.20
67093;SHT31;54011;50.772;7.730;2022-11-04T02:43:09;9.07;90.55
67093;SHT31;54011;50.772;7.730;2022-11-04T02:45:51;9.02;90.72
67093;SHT31;54011;50.772;7.730;2022-11-04T02:48:40;8.95;90.67
67093;SHT31;54011;50.772;7.730;2022-11-04T02:55:10;8.93;91.00
67093;SHT31;54011;50.772;7.730;2022-11-04T02:57:38;8.97;90.83
67093;SHT31;54011;50.772;7.730;2022-11-04T03:00:08;8.90;90.81
67093;SHT31;54011;50.772;7.730;2022-11-04T03:02:47;8.85;91.07
67093;SHT31;54011;50.772;7.730;2022-11-04T03:05:18;8.76;90.99
67093;SHT31;54011;50.772;7.730;2022-11-04T03:07:45;8.69;90.84
67093;SHT31;54011;50.772;7.730;2022-11-04T03:10:15;8.62;91.53
67093;SHT31;54011;50.772;7.730;2022-11-04T03:12:50;8.58;91.25
67093;SHT31;54011;50.772;7.730;2022-11-04T03:15:23;8.65;90.87
67093;SHT31;54011;50.772;7.730;2022-11-04T03:20:52;8.64;90.16
67093;SHT31;54011;50.772;7.730;2022-11-04T03:23:21;8.62;89.76
67093;SHT31;54011;50.772;7.730;2022-11-04T03:25:50;8.55;89.92
67093;SHT31;54011;50.772;7.730;2022-11-04T03:30:50;8.41;90.56
67093;SHT31;54011;50.772;7.730;2022-11-04T03:33:24;8.33;90.61
67093;SHT31;54011;50.772;7.730;2022-11-04T03:35:51;8.27;90.51
67093;SHT31;54011;50.772;7.730;2022-11-04T03:38:16;8.33;90.15
67093;SHT31;54011;50.772;7.730;2022-11-04T03:40:42;8.33;89.82
67093;SHT31;54011;50.772;7.730;2022-11-04T03:43:14;8.41;89.12
67093;SHT31;54011;50.772;7.730;2022-11-04T03:45:40;8.61;88.16
67093;SHT31;54011;50.772;7.730;2022-11-04T03:48:07;8.47;88.50
67093;SHT31;54011;50.772;7.730;2022-11-04T03:50:40;8.37;88.96
67093;SHT31;54011;50.772;7.730;2022-11-04T03:53:07;8.37;88.94
67093;SHT31;54011;50.772;7.730;2022-11-04T03:58:12;8.26;88.97
67093;SHT31;54011;50.772;7.730;2022-11-04T04:00:51;8.21;89.24
67093;SHT31;54011;50.772;7.730;2022-11-04T04:03:22;8.26;88.86
67093;SHT31;54011;50.772;7.730;2022-11-04T04:05:53;8.24;88.86
67093;SHT31;54011;50.772;7.730;2022-11-04T04:11:15;8.20;88.85
67093;SHT31;54011;50.772;7.730;2022-11-04T04:13:52;8.10;88.96
67093;SHT31;54011;50.772;7.730;2022-11-04T04:16:48;8.01;89.29
67093;SHT31;54011;50.772;7.730;2022-11-04T04:19:19;8.06;89.24
67093;SHT31;54011;50.772;7.730;2022-11-04T04:24:17;8.01;89.03
67093;SHT31;54011;50.772;7.730;2022-11-04T04:27:02;7.91;89.27
67093;SHT31;54011;50.772;7.730;2022-11-04T04:29:48;7.91;89.17
67093;SHT31;54011;50.772;7.730;2022-11-04T04:32:16;7.85;89.38
67093;SHT31;54011;50.772;7.730;2022-11-04T04:34:43;7.83;89.44
67093;SHT31;54011;50.772;7.730;2022-11-04T04:37:18;7.70;90.03
67093;SHT31;54011;50.772;7.730;2022-11-04T04:39:49;7.73;89.42
67093;SHT31;54011;50.772;7.730;2022-11-04T04:42:35;7.61;89.97
67093;SHT31;54011;50.772;7.730;2022-11-04T04:45:24;7.54;90.42
67093;SHT31;54011;50.772;7.730;2022-11-04T04:47:51;7.54;90.27
67093;SHT31;54011;50.772;7.730;2022-11-04T04:50:19;7.55;90.46
67093;SHT31;54011;50.772;7.730;2022-11-04T04:52:51;7.61;90.14
67093;SHT31;54011;50.772;7.730;2022-11-04T04:55:19;7.61;90.08
67093;SHT31;54011;50.772;7.730;2022-11-04T04:57:44;7.66;89.83
67093;SHT31;54011;50.772;7.730;2022-11-04T05:00:18;7.63;90.37
67093;SHT31;54011;50.772;7.730;2022-11-04T05:02:44;7.61;89.67
67093;SHT31;54011;50.772;7.730;2022-11-04T05:05:11;7.61;90.14
67093;SHT31;54011;50.772;7.730;2022-11-04T05:07:37;7.55;89.86
67093;SHT31;54011;50.772;7.730;2022-11-04T05:10:03;7.49;90.14
67093;SHT31;54011;50.772;7.730;2022-11-04T05:12:29;7.42;90.28
67093;SHT31;54011;50.772;7.730;2022-11-04T05:15:14;7.49;90.58
67093;SHT31;54011;50.772;7.730;2022-11-04T05:17:40;7.49;90.42
67093;SHT31;54011;50.772;7.730;2022-11-04T05:20:06;7.45;90.61
67093;SHT31;54011;50.772;7.730;2022-11-04T05:22:31;7.59;90.22
67093;SHT31;54011;50.772;7.730;2022-11-04T05:24:56;7.56;90.36
67093;SHT31;54011;50.772;7.730;2022-11-04T05:27:22;7.56;90.41
67093;SHT31;54011;50.772;7.730;2022-11-04T05:29:47;7.59;90.69
67093;SHT31;54011;50.772;7.730;2022-11-04T05:32:13;7.63;90.53
67093;SHT31;54011;50.772;7.730;2022-11-04T05:34:38;7.49;90.56
67093;SHT31;54011;50.772;7.730;2022-11-04T05:37:03;7.49;91.09
67093;SHT31;54011;50.772;7.730;2022-11-04T05:39:29;7.52;91.06
67093;SHT31;54011;50.772;7.730;2022-11-04T05:41:55;7.52;91.50
67093;SHT31;54011;50.772;7.730;2022-11-04T05:44:21;7.56;91.60
67093;SHT31;54011;50.772;7.730;2022-11-04T05:46:46;7.52;91.48
67093;SHT31;54011;50.772;7.730;2022-11-04T05:49:12;7.55;91.56
67093;SHT31;54011;50.772;7.730;2022-11-04T05:51:37;7.44;91.30
67093;SHT31;54011;50.772;7.730;2022-11-04T05:54:03;7.45;91.52
67093;SHT31;54011;50.772;7.730;2022-11-04T05:56:28;7.35;91.36
67093;SHT31;54011;50.772;7.730;2022-11-04T05:58:53;7.32;91.92
67093;SHT31;54011;50.772;7.730;2022-11-04T06:01:36;7.38;92.32
67093;SHT31;54011;50.772;7.730;2022-11-04T06:04:03;7.48;92.00
67093;SHT31;54011;50.772;7.730;2022-11-04T06:06:35;7.52;92.13
67093;SHT31;54011;50.772;7.730;2022-11-04T06:09:01;7.49;92.18
67093;SHT31;54011;50.772;7.730;2022-11-04T06:11:29;7.48;91.80
67093;SHT31;54011;50.772;7.730;2022-11-04T06:13:55;7.36;91.95
67093;SHT31;54011;50.772;7.730;2022-11-04T06:16:22;7.38;91.93
67093;SHT31;54011;50.772;7.730;2022-11-04T06:18:48;7.26;91.45
67093;SHT31;54011;50.772;7.730;2022-11-04T06:23:40;7.12;91.54
67093;SHT31;54011;50.772;7.730;2022-11-04T06:26:06;7.17;92.83
67093;SHT31;54011;50.772;7.730;2022-11-04T06:28:31;7.14;92.23
67093;SHT31;54011;50.772;7.730;2022-11-04T06:31:02;7.09;92.05
67093;SHT31;54011;50.772;7.730;2022-11-04T06:33:29;7.05;91.62
67093;SHT31;54011;50.772;7.730;2022-11-04T06:35:58;7.03;92.62
67093;SHT31;54011;50.772;7.730;2022-11-04T06:38:24;7.07;92.16
67093;SHT31;54011;50.772;7.730;2022-11-04T06:40:49;7.09;92.47
67093;SHT31;54011;50.772;7.730;2022-11-04T06:43:15;7.21;92.96
67093;SHT31;54011;50.772;7.730;2022-11-04T06:45:43;7.22;92.10
67093;SHT31;54011;50.772;7.730;2022-11-04T06:48:08;7.14;92.34
67093;SHT31;54011;50.772;7.730;2022-11-04T06:50:34;7.14;91.96
67093;SHT31;54011;50.772;7.730;2022-11-04T06:52:59;7.04;91.45
67093;SHT31;54011;50.772;7.730;2022-11-04T06:55:24;6.86;90.95
67093;SHT31;54011;50.772;7.730;2022-11-04T06:57:53;6.72;91.18
67093;SHT31;54011;50.772;7.730;2022-11-04T07:00:18;6.60;91.48
67093;SHT31;54011;50.772;7.730;2022-11-04T07:02:45;6.80;91.97
67093;SHT31;54011;50.772;7.730;2022-11-04T07:05:11;6.94;92.26
67093;SHT31;54011;50.772;7.730;2022-11-04T07:07:37;7.07;92.39
67093;SHT31;54011;50.772;7.730;2022-11-04T07:10:03;7.14;92.27
67093;SHT31;54011;50.772;7.730;2022-11-04T07:12:28;7.28;92.78
67093;SHT31;54011;50.772;7.730;2022-11-04T07:14:53;7.48;92.48
67093;SHT31;54011;50.772;7.730;2022-11-04T07:17:20;7.61;91.94
67093;SHT31;54011;50.772;7.730;2022-11-04T07:19:45;7.62;91.63
67093;SHT31;54011;50.772;7.730;2022-11-04T07:22:12;7.58;91.43
67093;SHT31;54011;50.772;7.730;2022-11-04T07:24:38;7.65;91.35
67093;SHT31;54011;50.772;7.730;2022-11-04T07:27:06;7.63;91.42
67093;SHT31;54011;50.772;7.730;2022-11-04T07:29:32;7.58;90.70
67093;SHT31;54011;50.772;7.730;2022-11-04T07:31:57;7.49;90.76
67093;SHT31;54011;50.772;7.730;2022-11-04T07:34:23;7.07;89.73
67093;SHT31;54011;50.772;7.730;2022-11-04T07:36:48;7.11;91.09
67093;SHT31;54011;50.772;7.730;2022-11-04T07:39:14;7.11;90.95
67093;SHT31;54011;50.772;7.730;2022-11-04T07:41:39;7.29;91.56
67093;SHT31;54011;50.772;7.730;2022-11-04T07:44:04;7.34;91.28
67093;SHT31;54011;50.772;7.730;2022-11-04T07:46:31;7.54;91.34
67093;SHT31;54011;50.772;7.730;2022-11-04T07:48:57;7.70;91.02
67093;SHT31;54011;50.772;7.730;2022-11-04T07:51:24;7.85;90.69
67093;SHT31;54011;50.772;7.730;2022-11-04T07:53:49;8.06;90.47
67093;SHT31;54011;50.772;7.730;2022-11-04T07:56:15;8.18;90.35
67093;SHT31;54011;50.772;7.730;2022-11-04T07:58:41;8.35;90.10
67093;SHT31;54011;50.772;7.730;2022-11-04T08:01:12;8.48;90.28
67093;SHT31;54011;50.772;7.730;2022-11-04T08:03:38;8.66;89.94
67093;SHT31;54011;50.772;7.730;2022-11-04T08:06:06;8.82;89.69
67093;SHT31;54011;50.772;7.730;2022-11-04T08:08:32;8.90;89.39
67093;SHT31;54011;50.772;7.730;2022-11-04T08:11:00;8.99;88.69
67093;SHT31;54011;50.772;7.730;2022-11-04T08:13:33;9.26;88.67
67093;SHT31;54011;50.772;7.730;2022-11-04T08:16:18;9.31;87.69
67093;SHT31;54011;50.772;7.730;2022-11-04T08:18:44;9.52;85.75
67093;SHT31;54011;50.772;7.730;2022-11-04T08:21:10;9.40;85.16
67093;SHT31;54011;50.772;7.730;2022-11-04T08:23:36;9.62;87.07
67093;SHT31;54011;50.772;7.730;2022-11-04T08:26:09;9.94;85.88
67093;SHT31;54011;50.772;7.730;2022-11-04T08:28:36;10.22;85.72
67093;SHT31;54011;50.772;7.730;2022-11-04T08:31:10;10.02;85.66
67093;SHT31;54011;50.772;7.730;2022-11-04T08:33:36;10.03;85.71
67093;SHT31;54011;50.772;7.730;2022-11-04T08:36:07;9.78;85.07
67093;SHT31;54011;50.772;7.730;2022-11-04T08:38:33;9.91;86.10
67093;SHT31;54011;50.772;7.730;2022-11-04T08:41:00;9.84;86.12
67093;SHT31;54011;50.772;7.730;2022-11-04T08:43:27;9.88;86.30
67093;SHT31;54011;50.772;7.730;2022-11-04T08:45:53;10.01;86.32
67093;SHT31;54011;50.772;7.730;2022-11-04T08:48:18;10.01;86.58
67093;SHT31;54011;50.772;7.730;2022-11-04T08:50:48;10.05;86.40
67093;SHT31;54011;50.772;7.730;2022-11-04T08:53:14;10.13;85.87
67093;SHT31;54011;50.772;7.730;2022-11-04T08:55:40;10.16;86.16
67093;SHT31;54011;50.772;7.730;2022-11-04T08:58:05;10.28;85.44
67093;SHT31;54011;50.772;7.730;2022-11-04T09:00:31;10.94;83.89
67093;SHT31;54011;50.772;7.730;2022-11-04T09:02:57;11.63;82.37
67093;SHT31;54011;50.772;7.730;2022-11-04T09:05:23;11.98;81.55
67093;SHT31;54011;50.772;7.730;2022-11-04T09:07:49;12.64;80.21
67093;SHT31;54011;50.772;7.730;2022-11-04T09:10:15;12.49;79.10
67093;SHT31;54011;50.772;7.730;2022-11-04T09:12:42;12.55;78.57
67093;SHT31;54011;50.772;7.730;2022-11-04T09:15:08;12.75;78.67
67093;SHT31;54011;50.772;7.730;2022-11-04T09:17:33;12.69;78.55
67093;SHT31;54011;50.772;7.730;2022-11-04T09:19:59;13.05;77.35
67093;SHT31;54011;50.772;7.730;2022-11-04T09:22:25;13.71;75.28
67093;SHT31;54011;50.772;7.730;2022-11-04T09:24:52;13.53;75.92
67093;SHT31;54011;50.772;7.730;2022-11-04T09:27:18;14.42;74.98
67093;SHT31;54011;50.772;7.730;2022-11-04T09:29:45;13.20;75.74
67093;SHT31;54011;50.772;7.730;2022-11-04T09:32:10;12.38;79.25
67093;SHT31;54011;50.772;7.730;2022-11-04T09:34:36;12.23;78.82
67093;SHT31;54011;50.772;7.730;2022-11-04T09:37:02;12.69;78.37
67093;SHT31;54011;50.772;7.730;2022-11-04T09:39:27;12.62;79.01
67093;SHT31;54011;50.772;7.730;2022-11-04T09:47:13;14.00;72.95
67093;SHT31;54011;50.772;7.730;2022-11-04T09:49:42;14.24;71.76
67093;SHT31;54011;50.772;7.730;2022-11-04T09:52:16;14.16;71.55
67093;SHT31;54011;50.772;7.730;2022-11-04T09:54:51;13.36;74.36
67093;SHT31;54011;50.772;7.730;2022-11-04T09:57:19;12.79;76.70
67093;SHT31;54011;50.772;7.730;2022-11-04T09:59:46;12.85;76.69
67093;SHT31;54011;50.772;7.730;2022-11-04T10:08:08;12.30;79.33
67093;SHT31;54011;50.772;7.730;2022-11-04T10:16:08;12.16;77.93
67093;SHT31;54011;50.772;7.730;2022-11-04T10:19:04;12.21;78.86
67093;SHT31;54011;50.772;7.730;2022-11-04T10:21:43;12.33;77.76
67093;SHT31;54011;50.772;7.730;2022-11-04T10:24:32;12.31;77.88
67093;SHT31;54011;50.772;7.730;2022-11-04T10:27:37;12.10;79.15
67093;SHT31;54011;50.772;7.730;2022-11-04T10:30:18;12.40;78.01
67093;SHT31;54011;50.772;7.730;2022-11-04T10:37:37;12.27;78.46
67093;SHT31;54011;50.772;7.730;2022-11-04T10:42:44;12.65;77.03
67093;SHT31;54011;50.772;7.730;2022-11-04T10:45:11;12.78;77.49
67093;SHT31;54011;50.772;7.730;2022-11-04T10:47:53;12.89;75.98
67093;SHT31;54011;50.772;7.730;2022-11-04T10:52:49;12.37;77.93
67093;SHT31;54011;50.772;7.730;2022-11-04T10:55:28;12.41;77.05
67093;SHT31;54011;50.772;7.730;2022-11-04T10:57:57;12.37;77.35
67093;SHT31;54011;50.772;7.730;2022-11-04T11:00:38;12.34;77.81
67093;SHT31;54011;50.772;7.730;2022-11-04T11:03:31;12.37;78.50
67093;SHT31;54011;50.772;7.730;2022-11-04T11:06:20;12.45;76.75
67093;SHT31;54011;50.772;7.730;2022-11-04T11:08:47;12.65;76.48
67093;SHT31;54011;50.772;7.730;2022-11-04T11:11:13;12.86;75.88
67093;SHT31;54011;50.772;7.730;2022-11-04T11:13:44;12.84;75.81
67093;SHT31;54011;50.772;7.730;2022-11-04T11:16:16;13.98;72.01
67093;SHT31;54011;50.772;7.730;2022-11-04T11:18:42;13.91;71.63
67093;SHT31;54011;50.772;7.730;2022-11-04T11:21:15;13.79;72.19
67093;SHT31;54011;50.772;7.730;2022-11-04T11:23:48;13.61;72.10
67093;SHT31;54011;50.772;7.730;2022-11-04T11:26:20;13.89;72.08
67093;SHT31;54011;50.772;7.730;2022-11-04T11:28:54;13.75;72.94
67093;SHT31;54011;50.772;7.730;2022-11-04T11:31:22;13.78;73.76
67093;SHT31;54011;50.772;7.730;2022-11-04T11:34:03;13.77;71.97
67093;SHT31;54011;50.772;7.730;2022-11-04T11:36:32;14.18;72.24
67093;SHT31;54011;50.772;7.730;2022-11-04T11:41:28;14.91;70.96
67093;SHT31;54011;50.772;7.730;2022-11-04T11:46:58;15.61;66.63
67093;SHT31;54011;50.772;7.730;2022-11-04T11:49:31;16.85;64.15
67093;SHT31;54011;50.772;7.730;2022-11-04T11:52:29;17.91;59.96
67093;SHT31;54011;50.772;7.730;2022-11-04T11:55:11;16.00;63.84
67093;SHT31;54011;50.772;7.730;2022-11-04T12:00:20;14.57;70.36
67093;SHT31;54011;50.772;7.730;2022-11-04T12:08:31;14.04;71.38
67093;SHT31;54011;50.772;7.730;2022-11-04T12:14:18;14.33;69.93
67093;SHT31;54011;50.772;7.730;2022-11-04T12:22:46;13.98;72.66
67093;SHT31;54011;50.772;7.730;2022-11-04T12:25:27;14.56;71.76
67093;SHT31;54011;50.772;7.730;2022-11-04T12:30:22;15.07;67.79
67093;SHT31;54011;50.772;7.730;2022-11-04T12:36:26;15.34;68.11
67093;SHT31;54011;50.772;7.730;2022-11-04T12:44:07;15.11;67.43
67093;SHT31;54011;50.772;7.730;2022-11-04T12:46:51;14.72;67.46
67093;SHT31;54011;50.772;7.730;2022-11-04T12:57:35;13.70;76.19
67093;SHT31;54011;50.772;7.730;2022-11-04T13:00:13;13.50;77.95
67093;SHT31;54011;50.772;7.730;2022-11-04T13:03:30;13.06;78.93
67093;SHT31;54011;50.772;7.730;2022-11-04T13:05:36;12.89;79.28
67093;SHT31;54011;50.772;7.730;2022-11-04T13:13:35;12.99;79.18
67093;SHT31;54011;50.772;7.730;2022-11-04T13:16:05;13.10;78.20
67093;SHT31;54011;50.772;7.730;2022-11-04T13:18:36;12.61;81.47
67093;SHT31;54011;50.772;7.730;2022-11-04T13:21:08;12.44;84.43
67093;SHT31;54011;50.772;7.730;2022-11-04T13:23:49;12.47;83.10
67093;SHT31;54011;50.772;7.730;2022-11-04T13:26:16;12.42;83.21
67093;SHT31;54011;50.772;7.730;2022-11-04T13:28:44;12.31;81.87
67093;SHT31;54011;50.772;7.730;2022-11-04T13:31:26;12.37;82.94
67093;SHT31;54011;50.772;7.730;2022-11-04T13:35:03;12.41;83.29
67093;SHT31;54011;50.772;7.730;2022-11-04T13:37:23;12.31;84.95
67093;SHT31;54011;50.772;7.730;2022-11-04T13:39:54;12.26;85.32
67093;SHT31;54011;50.772;7.730;2022-11-04T13:44:57;12.23;84.87
67093;SHT31;54011;50.772;7.730;2022-11-04T13:47:37;12.13;84.34
67093;SHT31;54011;50.772;7.730;2022-11-04T13:50:33;12.31;84.79
67093;SHT31;54011;50.772;7.730;2022-11-04T13:53:01;12.33;83.73
67093;SHT31;54011;50.772;7.730;2022-11-04T13:55:27;12.40;82.84
67093;SHT31;54011;50.772;7.730;2022-11-04T13:57:56;12.42;83.45
67093;SHT31;54011;50.772;7.730;2022-11-04T14:00:24;12.21;85.11
67093;SHT31;54011;50.772;7.730;2022-11-04T14:02:59;12.12;85.99
67093;SHT31;54011;50.772;7.730;2022-11-04T14:08:15;11.94;85.44
67093;SHT31;54011;50.772;7.730;2022-11-04T14:18:41;11.91;88.34
67093;SHT31;54011;50.772;7.730;2022-11-04T14:23:33;11.69;88.58
67093;SHT31;54011;50.772;7.730;2022-11-04T14:26:14;11.58;87.75
67093;SHT31;54011;50.772;7.730;2022-11-04T14:28:42;11.66;88.62
67093;SHT31;54011;50.772;7.730;2022-11-04T14:31:10;11.65;88.58
67093;SHT31;54011;50.772;7.730;2022-11-04T14:36:24;11.55;87.89
67093;SHT31;54011;50.772;7.730;2022-11-04T14:39:21;11.40;88.96
67093;SHT31;54011;50.772;7.730;2022-11-04T14:41:52;11.39;87.86
67093;SHT31;54011;50.772;7.730;2022-11-04T14:44:27;11.12;90.23
67093;SHT31;54011;50.772;7.730;2022-11-04T14:46:57;11.08;90.35
67093;SHT31;54011;50.772;7.730;2022-11-04T14:52:21;11.00;90.29
67093;SHT31;54011;50.772;7.730;2022-11-04T14:55:05;11.03;88.92
67093;SHT31;54011;50.772;7.730;2022-11-04T14:57:37;10.93;89.06
67093;SHT31;54011;50.772;7.730;2022-11-04T15:00:32;10.81;87.50
67093;SHT31;54011;50.772;7.730;2022-11-04T15:05:31;10.71;87.78
67093;SHT31;54011;50.772;7.730;2022-11-04T15:08:02;10.64;89.64
67093;SHT31;54011;50.772;7.730;2022-11-04T15:10:48;10.71;89.82
67093;SHT31;54011;50.772;7.730;2022-11-04T15:13:18;10.74;90.01
67093;SHT31;54011;50.772;7.730;2022-11-04T15:15:45;10.83;89.56
67093;SHT31;54011;50.772;7.730;2022-11-04T15:18:24;10.80;89.93
67093;SHT31;54011;50.772;7.730;2022-11-04T15:20:57;10.87;89.95
67093;SHT31;54011;50.772;7.730;2022-11-04T15:23:30;10.88;89.31
67093;SHT31;54011;50.772;7.730;2022-11-04T15:25:58;10.97;89.21
67093;SHT31;54011;50.772;7.730;2022-11-04T15:28:26;11.00;88.56
67093;SHT31;54011;50.772;7.730;2022-11-04T15:31:00;11.01;88.37
67093;SHT31;54011;50.772;7.730;2022-11-04T15:33:28;10.84;88.87
67093;SHT31;54011;50.772;7.730;2022-11-04T15:35:56;10.87;89.02
67093;SHT31;54011;50.772;7.730;2022-11-04T15:38:25;10.85;88.17
67093;SHT31;54011;50.772;7.730;2022-11-04T15:40:52;10.84;87.84
67093;SHT31;54011;50.772;7.730;2022-11-04T15:43:19;10.77;88.91
67093;SHT31;54011;50.772;7.730;2022-11-04T15:48:29;10.50;90.36
67093;SHT31;54011;50.772;7.730;2022-11-04T15:51:10;10.52;89.41
67093;SHT31;54011;50.772;7.730;2022-11-04T15:53:58;10.46;90.11
67093;SHT31;54011;50.772;7.730;2022-11-04T15:56:40;10.45;90.44
67093;SHT31;54011;50.772;7.730;2022-11-04T15:59:16;10.22;92.20
67093;SHT31;54011;50.772;7.730;2022-11-04T16:01:47;10.12;92.87
67093;SHT31;54011;50.772;7.730;2022-11-04T16:04:14;9.98;93.53
67093;SHT31;54011;50.772;7.730;2022-11-04T16:06:42;10.05;93.61
67093;SHT31;54011;50.772;7.730;2022-11-04T16:11:35;10.09;93.07
67093;SHT31;54011;50.772;7.730;2022-11-04T16:14:24;9.99;92.04
67093;SHT31;54011;50.772;7.730;2022-11-04T16:16:52;10.08;91.83
67093;SHT31;54011;50.772;7.730;2022-11-04T16:19:24;10.10;91.99
67093;SHT31;54011;50.772;7.730;2022-11-04T16:22:00;10.12;91.89
67093;SHT31;54011;50.772;7.730;2022-11-04T16:24:30;10.16;91.93
67093;SHT31;54011;50.772;7.730;2022-11-04T16:26:56;10.06;92.17
67093;SHT31;54011;50.772;7.730;2022-11-04T16:29:25;10.10;91.51
67093;SHT31;54011;50.772;7.730;2022-11-04T16:32:15;10.06;91.85
67093;SHT31;54011;50.772;7.730;2022-11-04T16:34:45;9.96;91.67
67093;SHT31;54011;50.772;7.730;2022-11-04T16:37:11;10.08;91.70
67093;SHT31;54011;50.772;7.730;2022-11-04T16:39:39;10.12;91.73
67093;SHT31;54011;50.772;7.730;2022-11-04T16:42:05;10.20;91.55
67093;SHT31;54011;50.772;7.730;2022-11-04T16:44:32;10.09;92.25
67093;SHT31;54011;50.772;7.730;2022-11-04T16:46:59;10.06;92.42
67093;SHT31;54011;50.772;7.730;2022-11-04T16:49:26;9.92;92.50
67093;SHT31;54011;50.772;7.730;2022-11-04T16:52:00;9.94;92.19
67093;SHT31;54011;50.772;7.730;2022-11-04T16:54:26;9.85;92.83
67093;SHT31;54011;50.772;7.730;2022-11-04T16:56:54;9.88;92.75
67093;SHT31;54011;50.772;7.730;2022-11-04T16:59:21;9.85;92.57
67093;SHT31;54011;50.772;7.730;2022-11-04T17:01:46;9.89;92.51
67093;SHT31;54011;50.772;7.730;2022-11-04T17:04:12;9.88;92.08
67093;SHT31;54011;50.772;7.730;2022-11-04T17:06:38;9.85;92.59
67093;SHT31;54011;50.772;7.730;2022-11-04T17:09:11;9.94;92.31
67093;SHT31;54011;50.772;7.730;2022-11-04T17:11:41;9.89;92.20
67093;SHT31;54011;50.772;7.730;2022-11-04T17:14:07;9.89;92.52
67093;SHT31;54011;50.772;7.730;2022-11-04T17:16:32;9.94;92.53
67093;SHT31;54011;50.772;7.730;2022-11-04T17:18:58;9.88;92.48
67093;SHT31;54011;50.772;7.730;2022-11-04T17:21:24;9.84;92.39
67093;SHT31;54011;50.772;7.730;2022-11-04T17:23:51;9.87;92.65
67093;SHT31;54011;50.772;7.730;2022-11-04T17:26:17;9.87;92.53
67093;SHT31;54011;50.772;7.730;2022-11-04T17:28:42;9.85;92.78
67093;SHT31;54011;50.772;7.730;2022-11-04T17:31:15;9.75;92.89
67093;SHT31;54011;50.772;7.730;2022-11-04T17:33:42;9.74;92.39
67093;SHT31;54011;50.772;7.730;2022-11-04T17:36:13;9.61;92.28
67093;SHT31;54011;50.772;7.730;2022-11-04T17:38:40;9.54;92.17
67093;SHT31;54011;50.772;7.730;2022-11-04T17:41:05;9.50;92.38
67093;SHT31;54011;50.772;7.730;2022-11-04T17:43:50;9.47;92.66
67093;SHT31;54011;50.772;7.730;2022-11-04T17:46:28;9.47;92.69
67093;SHT31;54011;50.772;7.730;2022-11-04T17:49:10;9.43;93.55
67093;SHT31;54011;50.772;7.730;2022-11-04T17:51:38;9.50;93.08
67093;SHT31;54011;50.772;7.730;2022-11-04T17:54:05;9.55;93.15
67093;SHT31;54011;50.772;7.730;2022-11-04T17:56:31;9.71;93.17
67093;SHT31;54011;50.772;7.730;2022-11-04T17:58:59;9.77;93.18
67093;SHT31;54011;50.772;7.730;2022-11-04T18:01:25;9.82;93.13
67093;SHT31;54011;50.772;7.730;2022-11-04T18:03:52;9.85;93.02
67093;SHT31;54011;50.772;7.730;2022-11-04T18:06:22;9.89;92.71
67093;SHT31;54011;50.772;7.730;2022-11-04T18:08:48;9.87;92.99
67093;SHT31;54011;50.772;7.730;2022-11-04T18:11:14;9.84;92.97
67093;SHT31;54011;50.772;7.730;2022-11-04T18:14:00;9.78;93.45
67093;SHT31;54011;50.772;7.730;2022-11-04T18:16:26;9.91;93.02